Time;durP1;ratioP1;P1;durP2;ratioP2;P2;SDS_P1;SDS_P2;PMS_P1;PMS_P2;Temp;Humidity;BMP_temperature;BMP_pressure;BME280_temperature;BME280_humidity;BME280_pressure;Samples;Min_cycle;Max_cycle;Signal;HPM_P1;HPM_P2
2024/02/05 00:02:03;;;;;;;;;5.00;4.00;;;;;6.05;88.28;99094.45;114535;242;39578;-55
2024/02/05 00:04:37;;;;;;;;;4.50;3.00;;;;;6.02;88.26;99100.30;114424;239;159890;-52
2024/02/05 00:07:11;;;;;;;;;3.00;2.25;;;;;6.00;88.48;99092.50;114539;242;40037;-51
2024/02/05 00:09:45;;;;;;;;;3.00;3.00;;;;;5.99;88.66;99089.45;114410;239;160936;-52
2024/02/05 00:12:19;;;;;;;;;4.00;3.00;;;;;5.98;88.62;99087.30;114526;242;40095;-52
2024/02/05 00:14:53;;;;;;;;;3.00;2.75;;;;;5.99;88.73;99087.39;114570;242;39553;-52
2024/02/05 00:17:26;;;;;;;;;4.00;3.00;;;;;5.97;88.76;99086.79;114399;239;161237;-52
2024/02/05 00:20:01;;;;;;;;;4.00;3.00;;;;;5.94;89.14;99080.11;114556;242;41724;-55
2024/02/05 00:22:34;;;;;;;;;5.00;4.00;;;;;5.94;89.24;99081.98;114420;242;161007;-56
2024/02/05 00:25:10;;;;;;;;;4.00;3.00;;;;;5.98;89.26;99075.08;114596;242;39202;-52
2024/02/05 00:27:44;;;;;;;;;3.00;2.00;;;;;6.01;89.26;99076.77;114461;239;160935;-52
2024/02/05 00:30:19;;;;;;;;;4.00;3.00;;;;;5.98;89.54;99074.44;114587;242;40721;-55
2024/02/05 00:32:53;;;;;;;;;4.25;3.50;;;;;6.02;89.50;99075.06;114567;242;41403;-56
2024/02/05 00:35:27;;;;;;;;;4.00;3.00;;;;;6.00;89.66;99060.64;114431;239;160622;-51
2024/02/05 00:38:01;;;;;;;;;4.25;2.75;;;;;5.96;89.79;99060.21;114559;243;39743;-55
2024/02/05 00:40:35;;;;;;;;;7.00;5.00;;;;;5.97;89.85;99056.63;114424;241;160759;-55
2024/02/05 00:43:09;;;;;;;;;5.00;4.00;;;;;5.97;90.07;99058.66;114557;243;39597;-55
2024/02/05 00:45:43;;;;;;;;;6.50;5.25;;;;;6.00;90.04;99048.10;114391;241;160965;-56
2024/02/05 00:48:17;;;;;;;;;4.00;4.00;;;;;6.05;90.04;99049.71;114537;243;40880;-52
2024/02/05 00:50:51;;;;;;;;;5.00;5.00;;;;;6.05;90.20;99048.43;114536;243;40136;-52
2024/02/05 00:53:25;;;;;;;;;4.75;3.75;;;;;6.08;90.04;99052.86;114421;241;160818;-51
2024/02/05 00:55:59;;;;;;;;;4.25;3.50;;;;;6.08;90.19;99044.25;114527;243;40946;-51
2024/02/05 00:58:33;;;;;;;;;5.75;4.25;;;;;6.02;90.30;99039.00;114384;241;160801;-52
2024/02/05 01:01:07;;;;;;;;;7.00;5.00;;;;;6.04;90.32;99042.57;114555;243;40057;-52
2024/02/05 01:03:42;;;;;;;;;4.00;3.00;;;;;6.06;90.36;99040.48;114434;243;161156;-51
2024/02/05 01:06:15;;;;;;;;;4.00;3.00;;;;;6.07;90.46;99043.49;114550;243;40212;-51
2024/02/05 01:08:49;;;;;;;;;6.00;3.50;;;;;6.00;90.54;99034.61;114587;243;40503;-54
2024/02/05 01:11:23;;;;;;;;;3.25;3.00;;;;;6.02;90.59;99033.93;114407;241;160757;-54
2024/02/05 01:13:57;;;;;;;;;4.33;3.00;;;;;6.05;90.73;99040.14;114585;243;39811;-54
2024/02/05 01:16:31;;;;;;;;;4.00;3.00;;;;;6.07;90.60;99036.77;114411;241;161696;-54
2024/02/05 01:19:05;;;;;;;;;6.00;4.00;;;;;6.03;90.64;99034.89;114561;243;40264;-55
2024/02/05 01:21:39;;;;;;;;;5.00;4.00;;;;;6.06;90.45;99032.60;114434;241;161174;-55
2024/02/05 01:24:13;;;;;;;;;4.75;4.00;;;;;6.11;90.43;99035.61;114545;243;41088;-55
2024/02/05 01:26:47;;;;;;;;;3.00;2.00;;;;;6.13;90.38;99035.79;114536;243;39512;-55
2024/02/05 01:29:21;;;;;;;;;3.00;3.00;;;;;6.16;90.31;99024.85;114418;241;160887;-55
2024/02/05 01:31:55;;;;;;;;;6.00;5.00;;;;;6.18;90.26;99024.94;114526;243;40044;-54
2024/02/05 01:34:28;;;;;;;;;3.00;3.00;;;;;6.17;90.20;99023.95;114404;241;161502;-55
2024/02/05 01:37:02;;;;;;;;;5.00;5.00;;;;;6.19;90.14;99016.66;114610;242;40440;-55
2024/02/05 01:39:36;;;;;;;;;4.00;3.00;;;;;6.22;90.04;99019.44;114547;239;160959;-51
2024/02/05 01:42:10;;;;;;;;;5.00;4.00;;;;;6.21;89.93;99014.33;114632;242;39487;-51
2024/02/05 01:44:44;;;;;;;;;4.00;3.00;;;;;6.20;89.93;99012.45;114708;243;39784;-52
2024/02/05 01:47:20;;;;;;;;;3.33;3.33;;;;;6.18;89.84;99008.45;114405;239;160355;-52
2024/02/05 01:49:54;;;;;;;;;5.00;3.25;;;;;6.19;89.82;99002.27;114735;243;40416;-54
2024/02/05 01:52:29;;;;;;;;;2.00;2.00;;;;;6.15;89.67;98994.94;114462;239;160508;-54
2024/02/05 01:55:05;;;;;;;;;4.00;3.50;;;;;6.14;89.74;99004.70;114707;242;39175;-55
2024/02/05 01:57:39;;;;;;;;;3.00;3.00;;;;;6.11;89.65;98992.92;114521;239;160097;-55
2024/02/05 02:00:15;;;;;;;;;5.00;4.00;;;;;6.08;89.58;98983.32;114590;242;40174;-54
2024/02/05 02:02:50;;;;;;;;;2.00;2.00;;;;;6.04;89.70;98981.48;114594;242;39652;-54
2024/02/05 02:05:25;;;;;;;;;6.00;3.67;;;;;6.03;89.71;98980.95;114385;239;160581;-54
2024/02/05 02:07:59;;;;;;;;;3.00;2.25;;;;;6.05;89.77;98980.43;114780;242;39367;-51
2024/02/05 02:10:33;;;;;;;;;4.00;3.00;;;;;6.08;89.72;98976.52;114482;242;160906;-51
2024/02/05 02:13:08;;;;;;;;;2.00;2.00;;;;;6.11;89.62;98982.73;114671;242;39506;-55
2024/02/05 02:15:42;;;;;;;;;4.00;3.75;;;;;6.12;89.66;98969.05;114601;239;161178;-56
2024/02/05 02:18:18;;;;;;;;;3.00;3.00;;;;;6.13;89.58;98970.17;114641;242;39889;-52
2024/02/05 02:20:57;;;;;;;;;1.75;1.00;;;;;6.15;89.63;98978.19;114762;243;39338;-52
2024/02/05 02:23:33;;;;;;;;;5.00;4.00;;;;;6.18;89.55;98974.21;114455;239;160724;-53
2024/02/05 02:26:07;;;;;;;;;2.00;2.00;;;;;6.20;89.56;98967.45;114824;243;40742;-52
2024/02/05 02:28:41;;;;;;;;;4.00;4.00;;;;;6.21;89.55;98970.76;114489;239;160871;-51
2024/02/05 02:31:18;;;;;;;;;4.00;3.00;;;;;6.21;89.69;98971.42;114548;242;40158;-51
2024/02/05 02:34:09;;;;;;;;;3.00;2.00;;;;;6.20;89.78;98966.84;114422;239;161009;-54
2024/02/05 02:36:52;;;;;;;;;2.00;1.75;;;;;6.21;89.89;98969.31;114572;242;40220;-54
2024/02/05 02:39:32;;;;;;;;;2.67;2.00;;;;;6.23;89.94;98960.87;113901;239;162251;-55
2024/02/05 02:42:08;;;;;;;;;5.00;3.00;;;;;6.22;90.28;98962.89;114566;242;40743;-55
2024/02/05 02:44:43;;;;;;;;;3.00;2.50;;;;;6.22;90.37;98952.94;114594;242;40622;-52
2024/02/05 02:47:17;;;;;;;;;3.50;3.00;;;;;6.19;90.22;98941.09;114434;239;160998;-52
2024/02/05 02:49:51;;;;;;;;;5.00;2.00;;;;;6.19;90.34;98938.66;114580;242;40002;-51
2024/02/05 02:52:24;;;;;;;;;4.00;3.00;;;;;6.19;90.53;98932.95;114394;239;160850;-50
2024/02/05 02:54:58;;;;;;;;;2.00;2.00;;;;;6.20;90.59;98927.48;114588;242;39719;-51
2024/02/05 02:57:32;;;;;;;;;2.00;2.00;;;;;6.19;90.45;98927.92;114407;240;161158;-51
2024/02/05 03:00:09;;;;;;;;;1.00;1.00;;;;;6.17;90.60;98927.14;114554;242;39789;-55
2024/02/05 03:02:43;;;;;;;;;2.75;2.50;;;;;6.18;90.56;98918.06;114556;243;39403;-55
2024/02/05 03:05:17;;;;;;;;;2.50;2.00;;;;;6.18;90.49;98921.90;114411;239;161105;-54
2024/02/05 03:07:51;;;;;;;;;3.00;2.00;;;;;6.17;90.46;98918.36;114553;242;40056;-53
2024/02/05 03:10:25;;;;;;;;;4.50;3.50;;;;;6.16;90.63;98915.05;114392;239;160954;-55
2024/02/05 03:12:59;;;;;;;;;2.00;2.00;;;;;6.16;90.61;98912.90;114553;242;39293;-52
2024/02/05 03:15:33;;;;;;;;;3.00;3.00;;;;;6.19;90.71;98912.05;114410;239;161106;-51
2024/02/05 03:18:08;;;;;;;;;1.00;1.00;;;;;6.20;90.55;98909.38;114536;242;39902;-54
2024/02/05 03:20:42;;;;;;;;;3.00;2.00;;;;;6.21;90.78;98906.56;114559;242;40887;-54
2024/02/05 03:23:16;;;;;;;;;2.25;1.00;;;;;6.23;90.59;98905.27;114454;239;160755;-55
2024/02/05 03:25:50;;;;;;;;;1.50;1.00;;;;;6.16;90.63;98906.80;114531;241;40156;-55
2024/02/05 03:28:26;;;;;;;;;1.00;1.00;;;;;6.17;90.72;98908.02;114480;238;161383;-54
2024/02/05 03:31:03;;;;;;;;;3.00;2.00;;;;;6.22;90.73;98911.98;114603;241;39546;-55
2024/02/05 03:33:37;;;;;;;;;3.00;2.00;;;;;6.25;90.77;98914.64;114496;238;161193;-55
2024/02/05 03:36:11;;;;;;;;;2.00;1.50;;;;;6.27;90.81;98915.61;114575;241;40387;-56
2024/02/05 03:38:45;;;;;;;;;2.00;2.00;;;;;6.30;90.75;98920.78;114613;241;39532;-55
2024/02/05 03:41:19;;;;;;;;;2.00;2.00;;;;;6.30;90.72;98917.67;114440;241;160868;-55
2024/02/05 03:43:53;;;;;;;;;2.00;1.00;;;;;6.31;90.92;98926.71;114597;242;39302;-54
2024/02/05 03:46:26;;;;;;;;;2.00;2.00;;;;;6.30;90.90;98923.71;114437;239;160913;-55
2024/02/05 03:49:00;;;;;;;;;4.00;3.00;;;;;6.29;90.94;98918.71;114576;242;39136;-54
2024/02/05 03:51:34;;;;;;;;;1.25;1.25;;;;;6.28;91.01;98917.55;114396;239;160941;-54
2024/02/05 03:54:08;;;;;;;;;4.00;2.00;;;;;6.31;91.03;98916.00;114560;241;39713;-50
2024/02/05 03:56:42;;;;;;;;;4.00;4.00;;;;;6.29;91.29;98916.76;114555;242;41394;-50
2024/02/05 03:59:16;;;;;;;;;3.00;2.00;;;;;6.27;91.33;98917.66;114438;239;160931;-51
2024/02/05 04:01:50;;;;;;;;;2.00;2.00;;;;;6.29;91.26;98912.36;114562;242;40208;-52
2024/02/05 04:04:24;;;;;;;;;3.00;2.25;;;;;6.30;91.45;98914.66;114444;239;160775;-54
2024/02/05 04:06:57;;;;;;;;;5.00;3.00;;;;;6.29;91.43;98913.51;114554;242;40242;-54
2024/02/05 04:09:31;;;;;;;;;3.00;3.00;;;;;6.31;91.55;98903.21;114472;239;161153;-51
2024/02/05 04:12:06;;;;;;;;;3.00;2.00;;;;;6.31;91.47;98898.91;114575;242;40286;-51
2024/02/05 04:14:40;;;;;;;;;3.00;2.00;;;;;6.31;91.71;98885.72;114601;242;39883;-53
2024/02/05 04:17:14;;;;;;;;;5.00;3.00;;;;;6.25;92.02;98885.07;114432;239;160773;-54
2024/02/05 04:19:48;;;;;;;;;4.00;3.00;;;;;6.25;91.88;98883.66;114615;242;41065;-51
2024/02/05 04:22:22;;;;;;;;;4.00;3.00;;;;;6.28;91.83;98883.42;114445;239;160868;-50
2024/02/05 04:24:55;;;;;;;;;3.00;3.00;;;;;6.32;91.92;98886.25;114550;241;40443;-52
2024/02/05 04:27:29;;;;;;;;;4.00;3.00;;;;;6.34;91.93;98881.23;114436;239;161000;-52
2024/02/05 04:30:04;;;;;;;;;2.00;1.25;;;;;6.35;91.99;98882.32;114542;241;41166;-54
2024/02/05 04:32:37;;;;;;;;;4.00;2.00;;;;;6.36;92.08;98878.77;114577;242;40305;-54
2024/02/05 04:35:12;;;;;;;;;3.00;2.00;;;;;6.37;92.07;98876.79;114416;239;160922;-55
2024/02/05 04:37:46;;;;;;;;;3.00;2.00;;;;;6.37;92.01;98871.39;114544;242;41229;-54
2024/02/05 04:40:21;;;;;;;;;3.00;3.00;;;;;6.35;92.07;98868.73;114398;239;161155;-51
2024/02/05 04:42:55;;;;;;;;;3.00;3.00;;;;;6.30;92.26;98867.67;114544;242;39873;-50
2024/02/05 04:45:29;;;;;;;;;3.00;2.00;;;;;6.32;92.09;98868.27;114424;239;161203;-51
2024/02/05 04:48:02;;;;;;;;;3.00;2.00;;;;;6.34;92.11;98857.34;114528;241;39315;-54
2024/02/05 04:50:37;;;;;;;;;3.00;2.00;;;;;6.31;92.25;98866.11;114591;242;41113;-54
2024/02/05 04:53:11;;;;;;;;;2.00;2.00;;;;;6.31;92.21;98868.38;114418;239;161834;-55
2024/02/05 04:55:45;;;;;;;;;3.00;2.00;;;;;6.32;92.15;98860.55;114625;242;38945;-55
2024/02/05 04:58:19;;;;;;;;;3.00;2.00;;;;;6.30;92.25;98855.50;114458;239;161001;-54
2024/02/05 05:00:53;;;;;;;;;2.00;1.50;;;;;6.30;92.27;98858.55;114575;242;39665;-55
2024/02/05 05:03:27;;;;;;;;;3.00;2.00;;;;;6.29;92.27;98858.10;114450;239;161233;-51
2024/02/05 05:06:01;;;;;;;;;2.33;2.00;;;;;6.28;92.31;98855.91;114557;241;39631;-51
2024/02/05 05:08:35;;;;;;;;;1.00;1.00;;;;;6.24;92.43;98863.83;114573;242;40941;-54
2024/02/05 05:11:09;;;;;;;;;4.00;3.00;;;;;6.28;92.35;98857.69;114414;239;161048;-55
2024/02/05 05:13:43;;;;;;;;;1.50;1.50;;;;;6.28;92.26;98868.29;114583;242;40783;-54
2024/02/05 05:16:18;;;;;;;;;2.25;2.00;;;;;6.29;92.21;98868.02;114411;239;160883;-54
2024/02/05 05:18:52;;;;;;;;;3.00;3.00;;;;;6.31;92.42;98861.95;114545;241;39038;-51
2024/02/05 05:21:26;;;;;;;;;2.33;2.00;;;;;6.33;92.30;98857.35;114397;238;161082;-51
2024/02/05 05:24:00;;;;;;;;;1.25;1.00;;;;;6.34;92.39;98860.86;114569;241;39735;-55
2024/02/05 05:26:34;;;;;;;;;2.00;1.00;;;;;6.31;92.48;98853.41;114581;242;39196;-55
2024/02/05 05:29:09;;;;;;;;;1.50;1.00;;;;;6.31;92.55;98846.77;114431;239;160841;-55
2024/02/05 05:31:43;;;;;;;;;2.00;2.00;;;;;6.26;92.49;98844.52;114621;242;40001;-54
2024/02/05 05:34:19;;;;;;;;;2.75;1.00;;;;;6.27;92.59;98844.60;114443;239;160877;-52
2024/02/05 05:36:53;;;;;;;;;2.00;1.75;;;;;6.31;92.37;98844.33;114562;241;40729;-52
2024/02/05 05:39:27;;;;;;;;;2.00;2.00;;;;;6.34;92.35;98857.63;114466;239;160947;-54
2024/02/05 05:42:01;;;;;;;;;2.00;1.50;;;;;6.34;92.37;98848.48;114558;241;40421;-55
2024/02/05 05:44:34;;;;;;;;;1.75;1.00;;;;;6.34;92.35;98845.30;114621;242;40285;-55
2024/02/05 05:47:08;;;;;;;;;2.00;2.00;;;;;6.33;92.26;98846.81;114425;231;164522;-54
2024/02/05 05:49:43;;;;;;;;;3.00;3.00;;;;;6.33;92.21;98844.39;114601;242;41163;-55
2024/02/05 05:52:16;;;;;;;;;4.00;2.00;;;;;6.34;92.33;98852.86;114444;239;160932;-55
2024/02/05 05:54:50;;;;;;;;;2.00;2.00;;;;;6.33;92.29;98858.33;114600;241;39852;-51
2024/02/05 05:57:24;;;;;;;;;2.00;2.00;;;;;6.34;92.40;98864.77;114444;239;161235;-51
2024/02/05 05:59:59;;;;;;;;;1.50;1.00;;;;;6.35;92.30;98863.25;114554;241;40094;-53
2024/02/05 06:02:33;;;;;;;;;3.00;2.00;;;;;6.38;92.37;98865.77;114582;241;39664;-55
2024/02/05 06:05:09;;;;;;;;;2.00;2.00;;;;;6.39;92.36;98871.77;114424;239;160877;-55
2024/02/05 06:07:44;;;;;;;;;1.00;1.00;;;;;6.34;92.60;98867.05;114597;242;39547;-55
2024/02/05 06:10:20;;;;;;;;;3.50;2.00;;;;;6.33;92.56;98874.55;114416;240;160754;-52
2024/02/05 06:12:55;;;;;;;;;2.00;2.00;;;;;6.33;92.57;98868.08;114568;242;40295;-51
2024/02/05 06:15:29;;;;;;;;;3.25;3.00;;;;;6.33;92.55;98864.18;114455;242;160926;-52
2024/02/05 06:18:03;;;;;;;;;2.00;2.00;;;;;6.37;92.52;98868.16;114542;241;39768;-54
2024/02/05 06:20:37;;;;;;;;;3.25;2.75;;;;;6.37;92.47;98874.30;114590;242;41049;-55
2024/02/05 06:23:11;;;;;;;;;3.00;2.00;;;;;6.41;92.44;98874.66;114428;239;160927;-52
2024/02/05 06:25:45;;;;;;;;;2.00;2.00;;;;;6.41;92.33;98879.77;114609;242;39523;-52
2024/02/05 06:28:19;;;;;;;;;2.00;2.00;;;;;6.42;92.42;98881.06;114479;239;160810;-56
2024/02/05 06:30:53;;;;;;;;;2.00;1.00;;;;;6.44;92.46;98871.16;114595;242;41420;-56
2024/02/05 06:33:30;;;;;;;;;2.00;2.00;;;;;6.44;92.28;98874.55;114468;239;161114;-55
2024/02/05 06:36:04;;;;;;;;;3.50;3.00;;;;;6.47;92.29;98869.13;114578;242;39940;-54
2024/02/05 06:38:39;;;;;;;;;4.00;3.00;;;;;6.51;92.22;98877.83;114583;242;40244;-54
2024/02/05 06:41:13;;;;;;;;;1.00;1.00;;;;;6.54;92.22;98872.52;114407;242;161444;-54
2024/02/05 06:43:47;;;;;;;;;2.00;1.75;;;;;6.59;92.11;98869.83;114548;242;41259;-52
2024/02/05 06:46:21;;;;;;;;;2.00;2.00;;;;;6.62;92.16;98878.91;114461;239;160864;-53
2024/02/05 06:48:54;;;;;;;;;1.50;1.00;;;;;6.65;92.13;98886.27;114569;241;40651;-55
2024/02/05 06:51:29;;;;;;;;;2.00;2.00;;;;;6.65;92.15;98884.16;114478;239;161487;-56
2024/02/05 06:54:03;;;;;;;;;1.00;1.00;;;;;6.66;92.10;98881.28;114560;242;40917;-51
2024/02/05 06:56:37;;;;;;;;;1.00;1.00;;;;;6.67;92.07;98890.53;114582;242;39425;-50
2024/02/05 06:59:11;;;;;;;;;3.00;2.00;;;;;6.65;92.08;98892.75;114413;239;160988;-50
2024/02/05 07:01:45;;;;;;;;;2.00;1.75;;;;;6.63;92.10;98897.27;114580;242;39673;-52
2024/02/05 07:04:18;;;;;;;;;3.00;2.00;;;;;6.63;91.89;98892.30;114419;239;160647;-53
2024/02/05 07:06:52;;;;;;;;;1.00;1.00;;;;;6.65;91.88;98900.92;114574;242;40845;-54
2024/02/05 07:09:26;;;;;;;;;1.00;1.00;;;;;6.68;91.65;98899.19;114477;239;160245;-52
2024/02/05 07:12:00;;;;;;;;;3.00;2.00;;;;;6.67;91.61;98905.73;114547;242;39434;-51
2024/02/05 07:14:34;;;;;;;;;1.00;1.00;;;;;6.64;91.51;98897.04;114594;242;40261;-54
2024/02/05 07:17:08;;;;;;;;;2.00;2.00;;;;;6.64;91.40;98905.25;114434;239;160876;-55
2024/02/05 07:19:42;;;;;;;;;2.75;2.00;;;;;6.65;91.27;98913.14;114628;242;39481;-56
2024/02/05 07:22:17;;;;;;;;;1.00;1.00;;;;;6.69;91.26;98911.88;114455;239;161062;-56
2024/02/05 07:24:51;;;;;;;;;1.00;1.00;;;;;6.75;91.26;98920.61;114572;241;39727;-55
2024/02/05 07:27:27;;;;;;;;;0.00;0.00;;;;;6.78;91.11;98919.39;114469;239;160961;-56
2024/02/05 07:30:01;;;;;;;;;2.67;1.00;;;;;6.82;90.87;98926.27;114546;241;39377;-52
2024/02/05 07:32:35;;;;;;;;;0.25;0.25;;;;;6.86;90.90;98924.95;114584;242;39448;-52
2024/02/05 07:35:10;;;;;;;;;1.00;1.00;;;;;6.91;90.91;98941.69;114451;239;160788;-56
2024/02/05 07:37:44;;;;;;;;;2.00;2.00;;;;;6.97;90.64;98938.31;114582;242;39868;-55
2024/02/05 07:40:19;;;;;;;;;1.00;1.00;;;;;7.04;90.41;98937.46;114460;239;160792;-55
2024/02/05 07:42:54;;;;;;;;;3.00;3.00;;;;;7.04;89.98;98930.65;114558;242;39611;-56
2024/02/05 07:45:30;;;;;;;;;1.25;1.00;;;;;7.12;90.09;98951.91;114446;239;160458;-52
2024/02/05 07:48:04;;;;;;;;;2.00;2.00;;;;;7.19;89.81;98967.26;114550;241;40749;-54
2024/02/05 07:50:39;;;;;;;;;3.00;2.75;;;;;7.17;89.22;98954.98;114590;242;41269;-53
2024/02/05 07:53:13;;;;;;;;;1.00;1.00;;;;;7.12;89.02;98941.99;114440;239;159857;-56
2024/02/05 07:55:47;;;;;;;;;1.00;1.00;;;;;7.10;89.11;98960.08;114622;242;40460;-56
2024/02/05 07:58:22;;;;;;;;;1.00;1.00;;;;;7.07;89.32;98965.86;114481;238;160592;-52
2024/02/05 08:00:56;;;;;;;;;2.00;2.00;;;;;7.14;89.29;98968.52;114634;241;39640;-52
2024/02/05 08:03:30;;;;;;;;;1.50;1.25;;;;;7.22;89.27;98968.46;114488;238;161158;-55
2024/02/05 08:06:19;;;;;;;;;2.00;1.00;;;;;7.34;89.23;98966.59;114573;241;39902;-56
2024/02/05 08:08:53;;;;;;;;;1.00;1.00;;;;;7.44;88.87;98966.11;114613;241;39359;-51
2024/02/05 08:11:27;;;;;;;;;3.00;3.00;;;;;7.55;88.76;98967.95;114411;239;160656;-51
2024/02/05 08:14:02;;;;;;;;;1.00;1.00;;;;;7.61;88.20;98975.18;114605;242;39868;-51
2024/02/05 08:16:36;;;;;;;;;3.00;2.00;;;;;7.61;87.71;98970.14;114436;239;160243;-51
2024/02/05 08:19:10;;;;;;;;;2.00;1.00;;;;;7.60;87.74;98977.50;114576;242;40254;-52
2024/02/05 08:21:44;;;;;;;;;3.00;2.00;;;;;7.63;87.46;98978.54;114444;231;164071;-52
2024/02/05 08:24:19;;;;;;;;;2.00;2.00;;;;;7.56;87.43;98979.23;114527;241;41173;-54
2024/02/05 08:26:54;;;;;;;;;7.75;4.50;;;;;7.58;87.34;98986.84;114542;242;39815;-54
2024/02/05 08:29:28;;;;;;;;;4.75;3.00;;;;;7.64;87.13;98977.47;114383;239;159796;-52
2024/02/05 08:32:03;;;;;;;;;3.00;3.25;;;;;7.71;86.85;98984.84;114574;242;39911;-52
2024/02/05 08:34:37;;;;;;;;;2.00;2.00;;;;;7.74;86.63;98989.23;114435;239;160784;-56
2024/02/05 08:37:11;;;;;;;;;1.00;1.00;;;;;7.84;86.38;99006.38;114581;242;41528;-56
2024/02/05 08:39:45;;;;;;;;;3.25;3.00;;;;;7.88;86.24;99001.30;114463;239;160987;-56
2024/02/05 08:42:19;;;;;;;;;2.00;2.00;;;;;7.91;86.18;99001.89;114581;242;39540;-56
2024/02/05 08:44:53;;;;;;;;;6.00;5.00;;;;;7.98;86.14;99012.73;114622;242;40101;-55
2024/02/05 08:47:27;;;;;;;;;2.00;2.00;;;;;8.03;85.82;99017.32;114435;239;160052;-54
2024/02/05 08:50:01;;;;;;;;;2.00;2.00;;;;;8.09;85.33;99007.80;114571;242;41028;-51
2024/02/05 08:52:35;;;;;;;;;2.00;2.00;;;;;8.11;84.75;99025.15;114451;239;161579;-51
2024/02/05 08:55:10;;;;;;;;;1.00;1.00;;;;;8.16;84.31;99029.10;114584;242;40088;-51
2024/02/05 08:57:49;;;;;;;;;2.00;2.00;;;;;8.16;84.06;99011.06;114460;239;161006;-51
2024/02/05 09:00:24;;;;;;;;;2.25;2.00;;;;;8.18;83.84;99012.59;114558;241;39021;-52
2024/02/05 09:02:58;;;;;;;;;2.00;2.00;;;;;8.27;84.18;99023.79;114553;242;39542;-53
2024/02/05 09:05:32;;;;;;;;;1.00;1.00;;;;;8.32;83.90;99036.41;114416;239;160367;-56
2024/02/05 09:08:07;;;;;;;;;2.00;2.00;;;;;8.41;83.49;99042.17;114585;242;39939;-53
2024/02/05 09:10:41;;;;;;;;;3.00;3.00;;;;;8.36;83.41;99052.68;114396;241;161118;-52
2024/02/05 09:13:15;;;;;;;;;3.00;3.00;;;;;8.41;83.04;99051.98;114599;242;39376;-56
2024/02/05 09:15:49;;;;;;;;;2.00;2.00;;;;;8.37;83.00;99044.91;114456;239;160338;-56
2024/02/05 09:18:24;;;;;;;;;5.00;5.00;;;;;8.36;82.31;99055.59;114575;241;41006;-55
2024/02/05 09:20:59;;;;;;;;;4.00;2.67;;;;;8.37;82.85;99056.20;114579;242;39834;-55
2024/02/05 09:23:33;;;;;;;;;7.00;5.00;;;;;8.35;82.56;99064.31;114437;239;161370;-52
2024/02/05 09:26:08;;;;;;;;;5.00;4.00;;;;;8.35;82.56;99060.42;114591;242;39627;-53
2024/02/05 09:28:44;;;;;;;;;4.00;3.00;;;;;8.36;82.71;99063.32;114448;241;160827;-52
2024/02/05 09:31:18;;;;;;;;;4.00;3.00;;;;;8.39;82.58;99066.30;114544;242;38914;-52
2024/02/05 09:33:52;;;;;;;;;3.00;2.00;;;;;8.43;82.84;99068.29;114469;239;161417;-52
2024/02/05 09:36:27;;;;;;;;;1.00;1.00;;;;;8.48;82.95;99065.39;114522;242;39408;-53
2024/02/05 09:39:04;;;;;;;;;4.25;3.50;;;;;8.58;82.55;99061.73;114569;242;39323;-53
2024/02/05 09:41:40;;;;;;;;;4.00;3.00;;;;;8.60;82.51;99062.59;114516;241;40171;-53
2024/02/05 09:44:16;;;;;;;;;3.00;3.00;;;;;8.53;82.42;99070.42;114601;241;40150;-57
2024/02/05 09:46:55;;;;;;;;;3.00;3.00;;;;;8.55;82.40;99070.84;114396;239;160584;-55
2024/02/05 09:49:29;;;;;;;;;2.50;2.00;;;;;8.47;82.09;99074.45;114442;242;39836;-52
2024/02/05 09:52:07;;;;;;;;;3.00;2.00;;;;;8.37;81.69;99070.86;114449;239;160245;-52
2024/02/05 09:54:43;;;;;;;;;2.67;2.00;;;;;8.35;81.83;99068.86;114581;242;41353;-53
2024/02/05 09:57:20;;;;;;;;;2.33;2.33;;;;;8.40;81.76;99078.77;114492;239;160440;-53
2024/02/05 09:59:54;;;;;;;;;3.33;3.00;;;;;8.36;81.94;99068.29;114534;241;39384;-53
2024/02/05 10:02:32;;;;;;;;;2.00;2.00;;;;;8.44;81.89;99068.09;114574;242;39381;-53
2024/02/05 10:05:09;;;;;;;;;1.00;1.00;;;;;8.49;81.34;99068.54;114432;238;160529;-52
2024/02/05 10:07:47;;;;;;;;;3.00;3.00;;;;;8.46;81.21;99062.44;114583;242;39802;-52
2024/02/05 10:10:23;;;;;;;;;4.00;3.25;;;;;8.36;80.56;99071.19;114443;238;160843;-53
2024/02/05 10:12:59;;;;;;;;;2.00;2.00;;;;;8.28;80.60;99063.14;114547;242;39592;-53
2024/02/05 10:15:33;;;;;;;;;3.50;3.00;;;;;8.10;80.58;99073.10;114434;238;160516;-52
2024/02/05 10:18:09;;;;;;;;;3.00;2.33;;;;;7.90;80.67;99072.45;114550;241;39452;-51
2024/02/05 10:20:45;;;;;;;;;3.00;2.00;;;;;7.77;80.92;99074.66;114570;242;39184;-51
2024/02/05 10:23:19;;;;;;;;;3.00;2.00;;;;;7.80;81.10;99063.55;114422;238;161316;-56
2024/02/05 10:25:56;;;;;;;;;3.00;2.00;;;;;7.87;81.23;99064.09;114612;242;39911;-56
2024/02/05 10:28:30;;;;;;;;;3.00;2.00;;;;;8.03;81.51;99061.70;114463;238;161347;-55
2024/02/05 10:31:12;;;;;;;;;3.00;3.00;;;;;8.18;81.30;99054.98;114561;241;39652;-55
2024/02/05 10:33:47;;;;;;;;;4.00;3.25;;;;;8.45;81.25;99057.36;114464;238;160539;-55
2024/02/05 10:36:24;;;;;;;;;4.00;3.00;;;;;8.69;81.13;99050.30;114521;242;39304;-55
2024/02/05 10:38:58;;;;;;;;;2.00;1.00;;;;;8.89;81.20;99046.84;114112;242;561907;-52
2024/02/05 10:41:32;;;;;;;;;4.25;2.00;;;;;9.05;80.09;99050.91;114392;238;160263;-52
2024/02/05 10:44:06;;;;;;;;;2.00;1.67;;;;;9.13;79.70;99044.73;114564;242;40580;-55
2024/02/05 10:46:40;;;;;;;;;3.00;3.00;;;;;9.14;79.43;99047.25;114413;238;160261;-55
2024/02/05 10:49:13;;;;;;;;;3.00;2.00;;;;;9.04;78.83;99051.31;114550;241;40721;-52
2024/02/05 10:51:47;;;;;;;;;4.00;2.00;;;;;8.95;78.94;99045.13;114461;238;160477;-52
2024/02/05 10:54:23;;;;;;;;;3.00;2.00;;;;;8.80;78.37;99050.02;114564;241;39719;-52
2024/02/05 10:57:00;;;;;;;;;2.00;2.00;;;;;8.66;78.13;99059.02;114573;242;39240;-52
2024/02/05 10:59:34;;;;;;;;;3.00;2.00;;;;;8.50;78.27;99063.40;114426;241;160051;-53
2024/02/05 11:02:17;;;;;;;;;2.00;2.00;;;;;8.46;79.30;99060.88;114520;242;40907;-52
2024/02/05 11:04:56;;;;;;;;;3.00;2.00;;;;;8.48;79.47;99064.64;114434;238;161573;-56
2024/02/05 11:07:35;;;;;;;;;1.00;1.00;;;;;8.61;79.79;99061.23;114580;242;39396;-56
2024/02/05 11:10:10;;;;;;;;;2.00;1.00;;;;;8.70;79.43;99050.33;114428;241;161171;-52
2024/02/05 11:12:48;;;;;;;;;2.00;1.00;;;;;8.76;79.04;99055.36;114562;241;40945;-51
2024/02/05 11:15:23;;;;;;;;;2.00;2.00;;;;;8.83;78.47;99054.93;114431;238;160828;-52
2024/02/05 11:17:58;;;;;;;;;1.00;1.00;;;;;8.88;77.58;99050.44;114544;242;40900;-53
2024/02/05 11:20:34;;;;;;;;;2.00;2.00;;;;;8.82;76.45;99049.55;114562;242;40041;-52
2024/02/05 11:23:08;;;;;;;;;2.00;2.00;;;;;8.86;76.99;99047.05;114426;239;160422;-53
2024/02/05 11:25:43;;;;;;;;;7.33;6.33;;;;;8.97;76.92;99053.08;114568;242;39892;-52
2024/02/05 11:28:17;;;;;;;;;7.00;5.75;;;;;8.98;77.34;99054.15;114478;239;160250;-52
2024/02/05 11:30:51;;;;;;;;;1.00;1.00;;;;;8.98;76.95;99055.52;114565;242;39467;-51
2024/02/05 11:33:33;;;;;;;;;1.50;1.00;;;;;8.91;76.61;99063.16;114468;239;161180;-50
2024/02/05 11:36:13;;;;;;;;;2.00;1.00;;;;;8.89;76.96;99072.48;114565;241;39438;-51
2024/02/05 11:38:47;;;;;;;;;1.00;1.00;;;;;8.86;76.68;99065.12;114619;242;39820;-50
2024/02/05 11:41:26;;;;;;;;;2.00;2.00;;;;;8.82;76.23;99069.94;114449;239;160357;-51
2024/02/05 11:44:11;;;;;;;;;1.00;1.00;;;;;8.72;76.20;99070.33;114562;242;41137;-55
2024/02/05 11:46:45;;;;;;;;;1.33;1.00;;;;;8.69;76.34;99071.11;114388;239;160086;-56
2024/02/05 11:49:19;;;;;;;;;3.00;3.00;;;;;8.76;75.95;99074.79;114560;242;41302;-56
2024/02/05 11:51:53;;;;;;;;;4.00;3.00;;;;;8.72;76.11;99073.14;114432;238;160490;-56
2024/02/05 11:54:28;;;;;;;;;2.67;2.00;;;;;8.67;76.19;99076.46;114551;241;39906;-52
2024/02/05 11:57:02;;;;;;;;;3.00;3.00;;;;;8.63;76.03;99071.33;114582;241;40230;-52
2024/02/05 11:59:35;;;;;;;;;1.00;1.00;;;;;8.57;76.16;99072.99;114409;239;160126;-52
2024/02/05 12:02:09;;;;;;;;;2.00;2.00;;;;;8.56;75.77;99063.38;114586;242;39979;-52
2024/02/05 12:04:44;;;;;;;;;2.00;2.00;;;;;8.48;75.59;99067.63;114441;239;160069;-54
2024/02/05 12:07:18;;;;;;;;;3.00;2.00;;;;;8.43;75.84;99071.81;114584;242;40365;-54
2024/02/05 12:09:53;;;;;;;;;2.00;1.50;;;;;8.45;75.95;99071.96;114456;239;160261;-51
2024/02/05 12:12:30;;;;;;;;;2.50;2.25;;;;;8.44;76.19;99079.77;114564;242;39662;-51
2024/02/05 12:15:05;;;;;;;;;2.00;2.00;;;;;8.46;76.21;99077.40;114567;242;40113;-51